Time;durP1;ratioP1;P1;durP2;ratioP2;P2;SDS_P1;SDS_P2;PMS_P1;PMS_P2;Temp;Humidity;BMP_temperature;BMP_pressure;BME280_temperature;BME280_humidity;BME280_pressure;Samples;Min_cycle;Max_cycle;Signal;HPM_P1;HPM_P2
2023/11/29 00:02:11;;;;;;;2.80;1.10;;;;;;;5.55;85.95;98196.45;79873;1296;3011530;-61
2023/11/29 00:04:40;;;;;;;3.50;1.00;;;;;;;5.47;86.14;98183.23;78724;1298;3056172;-61
2023/11/29 00:07:07;;;;;;;4.20;1.50;;;;;;;5.17;87.56;98176.83;80008;1295;3013704;-62
2023/11/29 00:09:33;;;;;;;3.20;1.60;;;;;;;5.20;87.70;98180.31;77256;1293;3570764;-61
2023/11/29 00:12:00;;;;;;;4.90;1.40;;;;;;;5.02;88.34;98169.94;79790;1298;3011642;-59
2023/11/29 00:14:30;;;;;;;3.60;1.30;;;;;;;4.84;89.47;98162.77;78850;1295;3068308;-62
2023/11/29 00:16:57;;;;;;;2.80;1.00;;;;;;;5.37;89.03;98163.86;80176;1292;3012837;-62
2023/11/29 00:19:24;;;;;;;3.10;1.30;;;;;;;5.77;86.77;98162.66;80151;1297;3011684;-63
2023/11/29 00:21:52;;;;;;;7.30;1.50;;;;;;;5.62;86.70;98163.55;78598;1298;3053401;-61
2023/11/29 00:24:19;;;;;;;2.60;1.20;;;;;;;5.43;87.61;98163.36;79953;1292;3012984;-62
2023/11/29 00:26:45;;;;;;;4.10;1.30;;;;;;;5.33;88.26;98158.19;79978;1295;3011926;-62
2023/11/29 00:29:13;;;;;;;5.70;1.40;;;;;;;5.32;88.32;98158.27;78867;1294;3025752;-62
2023/11/29 00:31:40;;;;;;;2.90;1.40;;;;;;;5.18;89.07;98154.23;79851;1294;3011802;-61
2023/11/29 00:34:07;;;;;;;5.60;1.20;;;;;;;5.18;89.43;98148.69;79909;1294;3013761;-62
2023/11/29 00:36:35;;;;;;;4.30;1.20;;;;;;;5.58;88.48;98142.99;78614;1296;3026346;-63
2023/11/29 00:39:02;;;;;;;3.60;1.40;;;;;;;5.93;86.50;98142.73;79773;1295;3020639;-61
2023/11/29 00:41:29;;;;;;;8.30;1.70;;;;;;;5.99;86.10;98135.73;79914;1298;3011667;-62
2023/11/29 00:43:57;;;;;;;5.10;1.40;;;;;;;5.72;86.48;98132.39;78633;1294;3025198;-62
2023/11/29 00:46:25;;;;;;;6.00;1.60;;;;;;;5.67;86.86;98130.75;79938;1294;3013997;-63
2023/11/29 00:48:52;;;;;;;7.20;1.60;;;;;;;5.50;87.22;98127.98;80031;1294;3011886;-63
2023/11/29 00:51:20;;;;;;;6.20;1.70;;;;;;;5.45;87.72;98122.20;78773;1296;3054365;-62
2023/11/29 00:53:47;;;;;;;6.50;1.40;;;;;;;5.39;88.00;98118.40;80308;1298;3013500;-62
2023/11/29 00:56:14;;;;;;;6.80;1.30;;;;;;;5.88;86.69;98121.86;80495;1294;3011618;-61
2023/11/29 00:58:42;;;;;;;4.80;1.10;;;;;;;6.29;84.25;98119.14;78974;1294;3026447;-63
2023/11/29 01:01:09;;;;;;;4.70;1.40;;;;;;;6.25;83.60;98111.91;80072;1295;3012778;-61
2023/11/29 01:03:36;;;;;;;6.80;1.30;;;;;;;6.17;83.62;98110.33;79679;1294;3013032;-60
2023/11/29 01:06:05;;;;;;;9.80;2.00;;;;;;;6.01;84.02;98106.95;78372;1298;3051917;-61
2023/11/29 01:08:33;;;;;;;4.90;1.40;;;;;;;5.85;84.57;98104.67;79667;1296;3013685;-63
2023/11/29 01:11:00;;;;;;;6.30;1.50;;;;;;;5.71;85.30;98103.08;79713;1295;3011558;-62
2023/11/29 01:13:28;;;;;;;4.50;1.70;;;;;;;5.62;85.68;98100.17;78897;1296;3068826;-62
2023/11/29 01:15:55;;;;;;;5.70;1.20;;;;;;;5.57;86.16;98084.30;80060;1294;3013698;-63
2023/11/29 01:18:22;;;;;;;9.80;1.40;;;;;;;6.02;85.10;98089.31;80057;1294;3011592;-63
2023/11/29 01:20:50;;;;;;;5.10;1.20;;;;;;;6.28;83.37;98080.91;78960;1294;3053192;-59
2023/11/29 01:23:17;;;;;;;6.50;1.50;;;;;;;6.32;82.96;98082.06;80165;1293;3013569;-62
2023/11/29 01:25:43;;;;;;;5.90;2.10;;;;;;;6.22;83.31;98074.52;79924;1297;3011257;-63
2023/11/29 01:28:11;;;;;;;5.80;1.30;;;;;;;6.11;83.70;98076.27;78695;1294;3027899;-62
2023/11/29 01:30:38;;;;;;;9.80;2.20;;;;;;;5.98;84.37;98074.99;79828;1294;3018652;-63
2023/11/29 01:33:05;;;;;;;6.60;2.00;;;;;;;5.85;85.50;98079.96;79801;1298;3011510;-62
2023/11/29 01:35:33;;;;;;;7.40;1.50;;;;;;;5.70;86.40;98075.68;78454;1296;3026410;-62
2023/11/29 01:38:00;;;;;;;8.10;2.30;;;;;;;6.13;85.91;98068.31;79742;1295;3013035;-63
2023/11/29 01:40:27;;;;;;;8.40;1.70;;;;;;;6.42;84.74;98060.88;80150;1295;3013346;-63
2023/11/29 01:42:56;;;;;;;8.80;1.60;;;;;;;6.46;84.40;98062.34;78412;1298;3068362;-62
2023/11/29 01:45:23;;;;;;;6.10;1.70;;;;;;;6.22;85.66;98059.73;79899;1293;3013899;-61
2023/11/29 01:47:50;;;;;;;6.40;1.60;;;;;;;5.98;86.95;98052.05;79775;1294;3013477;-63
2023/11/29 01:50:18;;;;;;;5.30;1.80;;;;;;;5.92;87.96;98058.34;78513;1295;3028341;-62
2023/11/29 01:52:45;;;;;;;5.00;1.70;;;;;;;5.77;88.92;98048.30;79835;1311;3013638;-62
2023/11/29 01:55:12;;;;;;;4.20;1.30;;;;;;;5.64;90.58;98042.71;79951;1298;3011391;-60
2023/11/29 01:57:41;;;;;;;6.90;1.30;;;;;;;6.03;89.80;98038.04;78777;1298;3069371;-61
2023/11/29 02:00:11;;;;;;;5.50;2.10;;;;;;;6.27;88.49;98035.94;80036;1294;3014548;-61
2023/11/29 02:02:42;;;;;;;8.30;2.30;;;;;;;6.29;87.79;98023.81;78617;1298;3049088;-61
2023/11/29 02:05:09;;;;;;;5.70;1.30;;;;;;;6.12;88.67;98028.05;79850;1294;3013178;-61
2023/11/29 02:07:36;;;;;;;8.60;1.80;;;;;;;5.92;89.95;98020.80;79817;1295;3011742;-64
2023/11/29 02:10:06;;;;;;;6.20;1.90;;;;;;;5.80;90.69;98018.23;78773;1294;3028127;-60
2023/11/29 02:12:33;;;;;;;6.10;1.50;;;;;;;5.69;91.52;98013.04;79876;1298;3011596;-61
2023/11/29 02:14:59;;;;;;;8.10;1.60;;;;;;;6.05;91.04;98008.49;79811;1294;3011632;-63
2023/11/29 02:17:27;;;;;;;6.50;1.70;;;;;;;6.18;89.53;98002.45;78418;1298;3049793;-62
2023/11/29 02:19:54;;;;;;;6.20;1.40;;;;;;;6.13;90.14;97998.10;79818;1295;3012923;-60
2023/11/29 02:22:21;;;;;;;5.80;1.80;;;;;;;5.91;90.68;97999.33;79492;1299;3012033;-59
2023/11/29 02:24:49;;;;;;;7.20;1.70;;;;;;;5.76;91.74;97992.10;78666;1295;3052325;-63
2023/11/29 02:27:16;;;;;;;3.20;1.40;;;;;;;5.72;92.23;97987.46;80005;1297;3013684;-61
2023/11/29 02:29:43;;;;;;;6.30;1.30;;;;;;;5.58;92.85;97983.66;80001;1294;3013323;-61
2023/11/29 02:32:11;;;;;;;5.60;1.60;;;;;;;5.80;93.18;97987.31;78583;1297;3026146;-60
2023/11/29 02:34:38;;;;;;;4.80;1.60;;;;;;;6.02;92.49;97981.90;79946;1295;3013096;-61
2023/11/29 02:37:05;;;;;;;6.20;1.90;;;;;;;6.01;92.27;97979.75;79757;1294;3013332;-61
2023/11/29 02:39:33;;;;;;;6.40;1.70;;;;;;;5.79;93.03;97978.17;78399;1298;3053244;-63
2023/11/29 02:42:00;;;;;;;7.40;1.90;;;;;;;5.70;94.03;97961.54;79865;1293;3019248;-60
2023/11/29 02:44:27;;;;;;;7.00;1.50;;;;;;;5.55;94.42;97957.83;79886;1294;3011664;-61
2023/11/29 02:46:56;;;;;;;3.90;1.50;;;;;;;5.73;95.23;97949.20;78790;1294;3027124;-60
2023/11/29 02:49:26;;;;;;;10.90;2.00;;;;;;;6.00;94.02;97939.67;79934;1294;3015867;-64
2023/11/29 02:51:54;;;;;;;8.30;2.40;;;;;;;5.97;93.00;97922.96;78680;1297;3053170;-60
2023/11/29 02:54:20;;;;;;;6.30;1.50;;;;;;;5.85;93.52;97914.23;79776;1295;3013218;-59
2023/11/29 02:56:47;;;;;;;5.80;1.50;;;;;;;5.68;94.43;97908.73;79959;1293;3011960;-65
2023/11/29 02:59:15;;;;;;;5.90;1.60;;;;;;;5.56;95.62;97888.29;78622;1298;3025796;-66
2023/11/29 03:01:42;;;;;;;5.70;1.50;;;;;;;5.94;94.58;97889.47;79578;1295;3012961;-62
2023/11/29 03:04:09;;;;;;;4.80;1.50;;;;;;;6.32;92.79;97879.81;79768;1295;3012005;-60
2023/11/29 03:06:38;;;;;;;6.60;1.80;;;;;;;6.23;92.01;97866.17;78760;1295;3052742;-62
2023/11/29 03:09:05;;;;;;;7.20;1.90;;;;;;;6.08;92.66;97867.18;80020;1295;3012630;-60
2023/11/29 03:11:32;;;;;;;5.00;1.70;;;;;;;5.80;93.86;97858.92;80354;1294;3011813;-61
2023/11/29 03:14:00;;;;;;;3.50;1.20;;;;;;;5.68;94.54;97845.48;78677;1295;3056978;-61
2023/11/29 03:16:27;;;;;;;4.20;1.60;;;;;;;5.59;95.84;97853.72;79658;1295;3013839;-61
2023/11/29 03:18:54;;;;;;;4.60;1.80;;;;;;;6.02;94.65;97840.25;79823;1295;3011652;-62
2023/11/29 03:21:22;;;;;;;6.00;1.90;;;;;;;6.12;93.11;97833.58;78584;1293;3028462;-60
2023/11/29 03:23:49;;;;;;;7.70;1.90;;;;;;;5.98;93.37;97821.23;79750;1298;3013653;-62
2023/11/29 03:26:16;;;;;;;11.60;2.80;;;;;;;5.91;93.43;97815.81;79842;1298;3011958;-60
2023/11/29 03:28:44;;;;;;;7.50;2.10;;;;;;;5.66;94.78;97820.09;78769;1294;3029062;-60
2023/11/29 03:31:11;;;;;;;4.60;1.50;;;;;;;5.52;95.92;97817.30;79766;1292;3013512;-62
2023/11/29 03:33:37;;;;;;;5.30;1.30;;;;;;;5.96;95.06;97806.09;79887;1292;3012904;-63
2023/11/29 03:36:07;;;;;;;6.20;1.90;;;;;;;6.07;93.64;97808.48;78844;1295;3026796;-59
2023/11/29 03:38:34;;;;;;;4.50;2.00;;;;;;;6.12;92.82;97809.90;79826;1296;3013152;-60
2023/11/29 03:41:00;;;;;;;5.90;1.80;;;;;;;5.79;93.99;97812.27;79790;1292;3012220;-60
2023/11/29 03:43:29;;;;;;;7.10;1.70;;;;;;;5.58;95.39;97816.28;78737;1293;3056259;-61
2023/11/29 03:45:56;;;;;;;5.20;1.50;;;;;;;5.53;96.19;97797.67;79908;1292;3021112;-61
2023/11/29 03:48:23;;;;;;;5.30;1.30;;;;;;;5.79;95.82;97801.30;79915;1293;3011640;-59
2023/11/29 03:50:51;;;;;;;4.40;1.60;;;;;;;6.17;93.65;97788.70;78491;1298;3026648;-61
2023/11/29 03:53:18;;;;;;;3.20;1.30;;;;;;;6.09;93.38;97783.48;79860;1295;3013061;-61
2023/11/29 03:55:44;;;;;;;5.10;1.80;;;;;;;5.88;94.43;97790.60;79760;1297;3011847;-61
2023/11/29 03:58:13;;;;;;;5.30;1.90;;;;;;;5.82;94.78;97782.36;78527;1298;3026100;-60
2023/11/29 04:00:39;;;;;;;6.50;1.30;;;;;;;5.69;95.66;97777.28;80002;1292;3013204;-59
2023/11/29 04:03:08;;;;;;;4.30;1.50;;;;;;;6.03;95.55;97768.98;79740;1295;3011660;-61
2023/11/29 04:05:37;;;;;;;12.10;1.60;;;;;;;6.34;93.47;97760.55;78842;1297;3053144;-62
2023/11/29 04:08:04;;;;;;;5.60;1.10;;;;;;;6.30;92.95;97758.55;80142;1295;3013215;-59
2023/11/29 04:10:33;;;;;;;5.80;1.50;;;;;;;6.14;93.22;97757.04;79665;1292;3013109;-61
2023/11/29 04:13:03;;;;;;;5.20;1.20;;;;;;;5.94;94.63;97747.10;78864;1297;3055991;-62
2023/11/29 04:15:30;;;;;;;5.00;0.90;;;;;;;5.70;96.21;97748.23;80275;1292;3013704;-60
2023/11/29 04:17:58;;;;;;;3.20;1.30;;;;;;;6.06;95.91;97735.01;79983;1295;3013198;-61
2023/11/29 04:20:26;;;;;;;3.70;1.40;;;;;;;6.14;95.01;97732.86;78602;1295;3052008;-60
2023/11/29 04:22:52;;;;;;;5.40;1.40;;;;;;;6.16;94.66;97732.26;80002;1293;3012682;-59
2023/11/29 04:25:19;;;;;;;8.00;1.70;;;;;;;6.04;95.18;97721.24;79979;1293;3012088;-61
2023/11/29 04:27:48;;;;;;;5.30;1.50;;;;;;;5.89;96.01;97725.56;78769;1292;3029684;-60
2023/11/29 04:30:15;;;;;;;6.10;1.30;;;;;;;5.78;96.96;97718.50;79863;1292;3020584;-61
2023/11/29 04:32:41;;;;;;;3.20;1.20;;;;;;;6.08;96.86;97709.31;80021;1292;3012712;-63
2023/11/29 04:35:10;;;;;;;2.80;1.30;;;;;;;6.30;95.30;97706.25;78629;1298;3025084;-60
2023/11/29 04:37:37;;;;;;;3.40;1.40;;;;;;;6.12;95.66;97698.09;79963;1294;3013253;-63
2023/11/29 04:40:04;;;;;;;8.20;1.80;;;;;;;5.95;96.62;97685.85;80092;1295;3011670;-62
2023/11/29 04:42:33;;;;;;;5.40;1.60;;;;;;;5.83;97.93;97681.98;78491;1298;3056630;-58
2023/11/29 04:45:00;;;;;;;2.90;1.00;;;;;;;5.77;99.34;97679.16;80098;1293;3013383;-59
2023/11/29 04:47:27;;;;;;;7.00;1.50;;;;;;;6.15;98.82;97669.89;79627;1292;3011718;-61
2023/11/29 04:49:55;;;;;;;5.10;1.40;;;;;;;6.29;97.01;97668.35;78817;1298;3026294;-60
2023/11/29 04:52:22;;;;;;;6.90;1.70;;;;;;;6.01;97.74;97658.87;80411;1292;3013688;-60
2023/11/29 04:54:49;;;;;;;4.10;1.50;;;;;;;5.98;98.09;97669.51;79843;1294;3011593;-61
2023/11/29 04:57:17;;;;;;;5.80;1.20;;;;;;;5.84;98.89;97654.01;78797;1295;3055330;-60
2023/11/29 04:59:44;;;;;;;3.60;1.10;;;;;;;6.20;98.63;97656.47;79726;1292;3013389;-59
2023/11/29 05:02:11;;;;;;;3.90;1.60;;;;;;;6.43;96.61;97653.27;80140;1292;3011409;-62
2023/11/29 05:04:39;;;;;;;4.40;1.40;;;;;;;6.36;96.27;97649.77;78555;1295;3026304;-61
2023/11/29 05:07:06;;;;;;;6.30;2.10;;;;;;;6.29;96.52;97642.98;79996;1298;3013749;-62
2023/11/29 05:09:32;;;;;;;4.50;1.80;;;;;;;6.06;97.68;97635.79;79899;1292;3011888;-62
2023/11/29 05:12:01;;;;;;;4.60;1.20;;;;;;;5.91;98.75;97620.65;78731;1292;3028887;-60
2023/11/29 05:14:27;;;;;;;2.70;1.10;;;;;;;6.15;98.48;97614.95;79912;1295;3019110;-60
2023/11/29 05:16:54;;;;;;;5.00;1.40;;;;;;;6.33;97.13;97603.95;79942;1297;3013004;-60
2023/11/29 05:19:22;;;;;;;4.40;1.60;;;;;;;6.34;96.59;97606.00;78667;1297;3026007;-60
2023/11/29 05:21:50;;;;;;;8.40;2.40;;;;;;;6.15;97.01;97604.19;79812;1295;3018412;-60
2023/11/29 05:24:16;;;;;;;5.90;1.50;;;;;;;6.03;97.85;97598.29;80045;1295;3011686;-63
2023/11/29 05:26:44;;;;;;;3.10;1.00;;;;;;;5.92;98.92;97595.91;78616;1293;3056741;-60
2023/11/29 05:29:11;;;;;;;5.60;1.50;;;;;;;6.28;97.68;97589.18;79862;1295;3013373;-61
2023/11/29 05:31:38;;;;;;;4.50;1.30;;;;;;;6.41;96.45;97590.14;79707;1294;3013598;-60
2023/11/29 05:34:06;;;;;;;8.50;2.20;;;;;;;6.32;96.00;97580.02;78491;1295;3028707;-62
2023/11/29 05:36:33;;;;;;;8.50;2.40;;;;;;;6.10;97.43;97579.17;79987;1296;3021125;-62
2023/11/29 05:38:59;;;;;;;4.60;1.40;;;;;;;6.02;98.01;97572.06;79881;1292;3011544;-59
2023/11/29 05:41:27;;;;;;;3.40;1.30;;;;;;;5.89;98.60;97573.01;78776;1292;3026547;-62
2023/11/29 05:43:54;;;;;;;4.20;1.30;;;;;;;6.27;97.78;97570.99;80197;1295;3012667;-62
2023/11/29 05:46:21;;;;;;;4.20;1.90;;;;;;;6.29;96.36;97566.30;79872;1295;3012148;-63
2023/11/29 05:48:50;;;;;;;2.90;1.30;;;;;;;6.35;95.59;97570.92;78687;1294;3028038;-66
2023/11/29 05:51:17;;;;;;;6.60;1.90;;;;;;;6.05;96.22;97557.27;80062;1297;3012818;-65
2023/11/29 05:53:44;;;;;;;3.40;1.00;;;;;;;5.88;97.46;97559.50;79746;1292;3011663;-62
2023/11/29 05:56:12;;;;;;;3.70;1.30;;;;;;;6.00;97.94;97556.02;78738;1297;3055807;-62
2023/11/29 05:58:39;;;;;;;6.40;1.70;;;;;;;6.48;95.52;97545.09;80089;1297;3013529;-60
2023/11/29 06:01:07;;;;;;;4.40;1.40;;;;;;;6.48;94.71;97551.69;79977;1294;3011795;-60
2023/11/29 06:03:35;;;;;;;4.40;1.70;;;;;;;6.16;95.44;97543.08;78755;1296;3052859;-62
2023/11/29 06:06:02;;;;;;;6.60;2.10;;;;;;;5.94;96.54;97546.90;79752;1295;3013835;-61
2023/11/29 06:08:29;;;;;;;3.70;1.50;;;;;;;5.88;98.05;97531.05;79852;1293;3011718;-60
2023/11/29 06:10:57;;;;;;;5.40;1.60;;;;;;;6.09;97.67;97538.41;78639;1297;3028009;-62
2023/11/29 06:13:25;;;;;;;4.30;1.40;;;;;;;6.33;96.59;97524.45;80066;1292;3013499;-61
2023/11/29 06:15:52;;;;;;;7.00;1.70;;;;;;;6.31;95.89;97522.33;79839;1292;3011630;-60
2023/11/29 06:18:20;;;;;;;5.80;1.70;;;;;;;6.03;96.81;97521.79;78990;1295;3052648;-63
2023/11/29 06:20:46;;;;;;;3.30;1.10;;;;;;;5.83;97.75;97503.90;80040;1292;3012872;-60
2023/11/29 06:23:13;;;;;;;3.90;1.20;;;;;;;5.74;98.66;97503.88;79928;1297;3011612;-60
2023/11/29 06:25:42;;;;;;;3.60;1.40;;;;;;;6.04;97.78;97495.10;78792;1295;3025562;-63
2023/11/29 06:28:09;;;;;;;6.80;1.20;;;;;;;6.23;96.54;97496.89;79965;1292;3013026;-62
2023/11/29 06:30:35;;;;;;;9.00;1.90;;;;;;;6.19;96.36;97495.39;79743;1293;3011874;-63
2023/11/29 06:33:04;;;;;;;4.20;1.30;;;;;;;6.00;96.80;97493.48;78834;1298;3052158;-61
2023/11/29 06:35:31;;;;;;;2.50;1.50;;;;;;;5.84;97.49;97478.83;80061;1292;3013386;-62
2023/11/29 06:37:57;;;;;;;3.70;1.20;;;;;;;5.93;98.06;97470.38;80070;1295;3011772;-62
2023/11/29 06:40:26;;;;;;;2.80;1.30;;;;;;;6.23;96.10;97471.29;78779;1293;3055421;-61
2023/11/29 06:42:53;;;;;;;3.40;1.40;;;;;;;6.24;94.47;97473.00;80192;1292;3013296;-62
2023/11/29 06:45:20;;;;;;;4.70;1.60;;;;;;;6.14;94.88;97466.29;80309;1292;3011519;-62
2023/11/29 06:47:49;;;;;;;5.70;1.60;;;;;;;5.89;95.76;97472.56;78491;1298;3051849;-64
2023/11/29 06:50:16;;;;;;;4.60;1.10;;;;;;;5.79;96.79;97465.30;79889;1298;3018464;-63
2023/11/29 06:52:43;;;;;;;3.80;1.20;;;;;;;6.16;95.93;97456.20;80047;1298;3011550;-59
2023/11/29 06:55:11;;;;;;;6.00;1.10;;;;;;;6.30;94.24;97452.90;78705;1292;3055193;-63
2023/11/29 06:57:38;;;;;;;3.30;1.30;;;;;;;6.18;94.31;97440.77;79949;1292;3018451;-59
2023/11/29 07:00:11;;;;;;;6.60;1.40;;;;;;;5.94;95.22;97440.94;79831;1292;3013283;-62
2023/11/29 07:02:39;;;;;;;3.70;0.80;;;;;;;5.81;95.91;97432.30;78618;1298;3050559;-64
2023/11/29 07:05:07;;;;;;;3.50;1.60;;;;;;;5.85;96.10;97430.80;80148;1295;3012915;-62
2023/11/29 07:07:35;;;;;;;3.20;1.00;;;;;;;6.05;95.18;97422.02;79952;1292;3011555;-62
2023/11/29 07:10:05;;;;;;;5.50;1.30;;;;;;;6.12;94.79;97412.90;78872;1292;3055525;-64
2023/11/29 07:12:32;;;;;;;7.70;1.40;;;;;;;6.13;94.72;97422.53;79756;1292;3011524;-64
2023/11/29 07:14:59;;;;;;;7.30;1.40;;;;;;;5.94;95.25;97420.28;80031;1292;3011645;-63
2023/11/29 07:17:27;;;;;;;3.90;1.20;;;;;;;5.73;96.54;97426.09;78924;1298;3053156;-64
2023/11/29 07:19:55;;;;;;;2.70;1.00;;;;;;;5.76;96.95;97428.67;80047;1298;3020718;-62
2023/11/29 07:22:24;;;;;;;6.00;1.40;;;;;;;6.08;96.00;97415.21;80401;1294;3011647;-61
2023/11/29 07:24:52;;;;;;;6.80;1.20;;;;;;;6.09;95.33;97415.88;78764;1292;3055161;-60
2023/11/29 07:27:19;;;;;;;3.40;1.30;;;;;;;5.87;96.24;97424.21;80201;1295;3012927;-64
2023/11/29 07:29:46;;;;;;;5.80;1.40;;;;;;;5.73;97.30;97418.61;79974;1293;3011333;-62
2023/11/29 07:32:15;;;;;;;6.10;1.30;;;;;;;5.61;98.58;97422.30;78670;1295;3053715;-62
2023/11/29 07:34:47;;;;;;;4.60;1.20;;;;;;;5.99;97.87;97428.09;80004;1295;3013532;-62
2023/11/29 07:37:18;;;;;;;3.40;1.10;;;;;;;6.05;96.56;97427.41;78741;1292;3051724;-61
2023/11/29 07:39:45;;;;;;;3.90;1.60;;;;;;;5.98;96.87;97422.38;79845;1297;3011582;-61
2023/11/29 07:42:14;;;;;;;3.30;1.00;;;;;;;5.83;97.66;97424.19;79436;1293;3011747;-62
2023/11/29 07:44:41;;;;;;;4.00;1.40;;;;;;;5.72;98.55;97430.00;79735;1292;3015230;-62
2023/11/29 07:47:10;;;;;;;3.30;1.10;;;;;;;5.73;99.69;97421.56;79949;1292;3013155;-60
2023/11/29 07:49:38;;;;;;;4.80;1.20;;;;;;;6.18;97.63;97417.14;78855;1294;3052940;-63
2023/11/29 07:52:06;;;;;;;4.80;1.40;;;;;;;6.05;97.04;97408.80;80050;1295;3012926;-61
2023/11/29 07:54:32;;;;;;;2.70;1.00;;;;;;;5.95;97.40;97411.98;79806;1298;3011857;-61
2023/11/29 07:57:01;;;;;;;5.90;1.40;;;;;;;5.85;98.27;97399.52;78742;1292;3049174;-59
2023/11/29 07:59:28;;;;;;;4.30;1.60;;;;;;;5.70;99.27;97397.30;79937;1296;3013778;-59
2023/11/29 08:01:55;;;;;;;2.80;1.00;;;;;;;6.05;98.84;97393.91;79939;1292;3013344;-61
2023/11/29 08:04:23;;;;;;;4.60;1.20;;;;;;;6.19;97.36;97383.98;78719;1297;3051827;-59
2023/11/29 08:06:50;;;;;;;2.80;0.80;;;;;;;6.16;97.33;97381.99;80104;1294;3012905;-61
2023/11/29 08:09:17;;;;;;;3.70;1.20;;;;;;;5.94;98.05;97380.27;79713;1297;3011853;-63
2023/11/29 08:11:45;;;;;;;6.10;1.50;;;;;;;5.84;99.04;97378.05;78814;1295;3026640;-65
2023/11/29 08:14:12;;;;;;;3.60;1.40;;;;;;;5.90;99.79;97378.83;79729;1294;3013653;-61
2023/11/29 08:16:39;;;;;;;3.80;1.10;;;;;;;6.16;98.55;97366.16;79935;1293;3013261;-61
2023/11/29 08:19:08;;;;;;;2.50;1.10;;;;;;;6.27;97.26;97352.13;78647;1297;3053047;-61
2023/11/29 08:21:35;;;;;;;3.00;1.10;;;;;;;6.13;97.29;97364.27;80161;1292;3013097;-62
2023/11/29 08:24:02;;;;;;;4.90;1.00;;;;;;;5.91;97.98;97350.07;80189;1292;3011542;-61
2023/11/29 08:26:31;;;;;;;1.40;0.70;;;;;;;5.81;99.53;97346.66;79035;1292;3049653;-62
2023/11/29 08:28:58;;;;;;;2.60;1.20;;;;;;;6.25;98.56;97349.92;80057;1295;3013802;-64
2023/11/29 08:31:27;;;;;;;2.50;0.80;;;;;;;6.48;96.37;97343.38;79876;1292;3011406;-62
2023/11/29 08:33:55;;;;;;;2.20;0.70;;;;;;;6.39;95.90;97330.80;78543;1298;3053382;-61
2023/11/29 08:36:21;;;;;;;3.60;0.90;;;;;;;6.19;96.79;97340.88;79959;1295;3012849;-59
2023/11/29 08:38:51;;;;;;;2.10;0.90;;;;;;;6.03;97.82;97333.77;80006;1295;3011380;-60
2023/11/29 08:41:19;;;;;;;3.70;0.80;;;;;;;6.01;99.07;97327.14;78558;1298;3049078;-61
2023/11/29 08:43:46;;;;;;;2.10;1.00;;;;;;;6.40;98.28;97325.00;79973;1292;3013372;-61
2023/11/29 08:46:14;;;;;;;3.40;1.30;;;;;;;6.48;96.87;97332.55;79891;1293;3011609;-62
2023/11/29 08:48:43;;;;;;;4.70;1.20;;;;;;;6.38;96.88;97327.98;78834;1295;3052389;-59
2023/11/29 08:51:09;;;;;;;3.10;1.20;;;;;;;6.14;97.86;97329.06;80033;1292;3016084;-60
2023/11/29 08:53:36;;;;;;;3.80;0.80;;;;;;;5.98;98.92;97330.45;79723;1298;3011569;-63
2023/11/29 08:56:17;;;;;;;0.90;0.70;;;;;;;6.04;100.00;97323.04;78801;1292;3049330;-60
2023/11/29 08:58:45;;;;;;;;;;;;;;;6.44;98.54;97317.73;78724;1296;3053938;-61
2023/11/29 09:01:12;;;;;;;;;;;;;;;6.37;97.88;97320.92;80103;1298;3013345;-62
2023/11/29 09:03:40;;;;;;;;;;;;;;;6.24;98.14;97317.36;80224;1298;3011860;-61
2023/11/29 09:06:08;;;;;;;;;;;;;;;6.15;98.75;97310.27;78814;1295;3069449;-60
2023/11/29 09:08:35;;;;;;;;;;;;;;;5.89;99.87;97301.05;79751;1292;3021244;-61
2023/11/29 09:11:02;;;;;;;;;;;;;;;6.26;100.00;97288.37;80018;1292;3011598;-59
2023/11/29 09:13:30;;;;;;;;;;;;;;;6.68;98.62;97285.79;78605;1292;3051922;-62
2023/11/29 09:15:57;;;;;;;;;;;;;;;6.83;97.12;97276.23;80137;1298;3013765;-61
2023/11/29 09:18:24;;;;;;;;;;;;;;;6.58;97.36;97281.73;79891;1298;3011783;-65
2023/11/29 09:20:52;;;;;;;;;;;;;;;6.50;98.19;97289.27;78816;1293;3026087;-62
2023/11/29 09:23:19;;;;;;;;;;;;;;;6.22;99.16;97294.08;79949;1292;3018688;-63
2023/11/29 09:25:47;;;;;;;;;;;;;;;6.05;100.00;97290.81;79858;1292;3013128;-62
2023/11/29 09:28:16;;;;;;;;;;;;;;;6.49;100.00;97286.89;78737;1292;3053352;-63
2023/11/29 09:30:44;;;;;;;;;;;;;;;6.91;98.73;97277.99;80144;1297;3013649;-63
2023/11/29 09:33:10;;;;;;;;;;;;;;;6.78;98.03;97266.69;79984;1298;3011888;-62
2023/11/29 09:35:38;;;;;;;;;;;;;;;6.63;98.97;97258.52;78598;1293;3067569;-63
2023/11/29 09:38:05;;;;;;;;;;;;;;;6.49;99.60;97262.94;79963;1292;3012889;-62
2023/11/29 09:40:32;;;;;;;;;;;;;;;6.48;100.00;97257.77;79963;1297;3011664;-61
2023/11/29 09:43:00;;;;;;;;;;;;;;;6.33;100.00;97250.77;78817;1292;3025597;-64
2023/11/29 09:45:27;;;;;;;;;;;;;;;6.68;100.00;97238.46;79872;1295;3013133;-63
2023/11/29 09:47:55;;;;;;;;;;;;;;;7.16;99.12;97239.44;79874;1298;3011528;-63
2023/11/29 09:50:24;;;;;;;;;;;;;;;7.29;97.61;97237.33;78466;1294;3068494;-60
2023/11/29 09:52:52;;;;;;;;;;;;;;;7.05;98.53;97233.09;79896;1292;3013154;-63
2023/11/29 09:55:21;;;;;;;;;;;;;;;6.99;99.21;97227.46;79553;1298;3013148;-60
2023/11/29 09:57:47;;;;;;;;;;;;;;;6.88;100.00;97227.66;80460;1297;3012935;-63
2023/11/29 10:00:15;;;;;;;;;;;;;;;6.75;100.00;97222.42;79854;1292;3011587;-60
2023/11/29 10:02:43;;;;;;;;;;;;;;;7.19;100.00;97227.20;78820;1295;3054296;-61
2023/11/29 10:05:17;;;;;;;;;;;;;;;7.69;99.24;97232.64;79972;1292;3013615;-62
2023/11/29 10:07:46;;;;;;;;;;;;;;;7.68;98.58;97240.54;78699;1297;3051409;-62
2023/11/29 10:10:12;;;;;;;;;;;;;;;7.57;98.71;97246.33;79906;1292;3013474;-63
2023/11/29 10:12:41;;;;;;;;;;;;;;;7.45;99.76;97238.64;79933;1292;3011639;-63
2023/11/29 10:15:10;;;;;;;;;;;;;;;7.28;100.00;97247.73;78674;1298;3049868;-62
2023/11/29 10:17:37;;;;;;;;;;;;;;;7.48;100.00;97248.50;79847;1299;3012996;-62
2023/11/29 10:20:06;;;;;;;;;;;;;;;7.95;100.00;97258.67;79932;1296;3012994;-63
2023/11/29 10:22:34;;;;;;;;;;;;;;;7.73;100.00;97258.95;78786;1292;3051452;-60
2023/11/29 10:25:14;;;;;;;;;;;;;;;7.61;100.00;97255.59;79952;1298;3011854;-63
2023/11/29 10:27:42;;;;;;;;;;;;;;;7.66;100.00;97251.55;78619;1295;3054129;-62
2023/11/29 10:30:09;;;;;;;;;;;;;;;7.69;100.00;97254.48;79822;1297;3013098;-64
2023/11/29 10:32:36;;;;;;;;;;;;;;;7.81;100.00;97261.30;79778;1298;3013205;-62
2023/11/29 10:35:05;;;;;;;;;;;;;;;8.14;100.00;97265.63;78656;1293;3069688;-62
2023/11/29 10:37:32;;;;;;;;;;;;;;;8.38;100.00;97266.54;79908;1295;3014819;-62
2023/11/29 10:39:59;;;;;;;;;;;;;;;8.25;100.00;97274.30;79930;1292;3011723;-61
2023/11/29 10:42:27;;;;;;;;;;;;;;;8.17;100.00;97280.38;78872;1293;3052834;-61
2023/11/29 10:44:53;;;;;;;;;;;;;;;8.09;100.00;97280.19;80172;1298;3013605;-59
2023/11/29 10:47:26;;;;;;;;;;;;;;;8.49;100.00;97284.10;79723;1295;3011611;-61
2023/11/29 10:50:06;;;;;;;;;;;;;;;8.70;100.00;97275.43;78721;1297;3067116;-60
2023/11/29 10:52:35;;;;;;;;;;;;;;;8.64;100.00;97279.13;78828;1298;3052630;-62
2023/11/29 10:55:02;;;;;;;;;;;;;;;8.53;100.00;97284.09;79887;1293;3013284;-61
2023/11/29 10:57:30;;;;;;;;;;;;;;;8.45;100.00;97296.98;79968;1295;3013140;-61
2023/11/29 11:00:13;;;;;;;;;;;;;;;8.65;100.00;97303.98;78539;1298;3049188;-64
2023/11/29 11:02:44;;;;;;;;;;;;;;;8.74;100.00;97287.69;78782;1295;3052183;-63
2023/11/29 11:05:11;;;;;;;;;;;;;;;8.70;100.00;97297.10;80074;1298;3011391;-62
2023/11/29 11:07:40;;;;;;;;;;;;;;;8.65;100.00;97312.71;79612;1295;3011594;-61
2023/11/29 11:10:08;;;;;;;;;;;;;;;8.79;100.00;97311.73;79996;1298;3013369;-64
2023/11/29 11:12:36;;;;;;;;;;;;;;;9.04;100.00;97320.70;79582;1293;3011857;-64
2023/11/29 11:15:07;;;;;;;;;;;;;;;9.21;99.99;97324.58;78694;1295;3052761;-62
2023/11/29 11:17:34;;;;;;;;;;;;;;;9.01;99.89;97327.61;79643;1298;3013632;-61
2023/11/29 11:20:09;;;;;;;;;;;;;;;8.88;99.97;97327.34;78628;1295;3026320;-63
2023/11/29 11:22:41;;;;;;;;;;;;;;;8.75;100.00;97334.59;79331;1298;3013140;-62
2023/11/29 11:25:11;;;;;;;;;;;;;;;8.94;99.72;97335.91;79838;1297;3013281;-64
2023/11/29 11:27:48;;;;;;;;;;;;;;;9.27;97.45;97338.75;78643;1296;3068869;-64
2023/11/29 11:30:17;;;;;;;;;;;;;;;9.24;96.26;97344.64;78472;1298;3051397;-61
2023/11/29 11:32:59;;;;;;;;;;;;;;;9.07;96.79;97345.45;80066;1298;3012817;-61
2023/11/29 11:35:31;;;;;;;;;;;;;;;8.92;97.18;97351.98;78785;1298;3052901;-65
2023/11/29 11:37:58;;;;;;;;;;;;;;;8.83;97.37;97358.81;79865;1297;3011501;-61
2023/11/29 11:40:27;;;;;;;;;;;;;;;9.15;95.97;97370.74;78453;1298;3025578;-63
2023/11/29 11:42:54;;;;;;;;;;;;;;;9.41;93.96;97358.63;79748;1298;3013312;-61